Swedona, Illinois
Current Conditions -  °F | °C
As of 10:52 AM on Saturday 22 Nov 2014 (Local Time) from KMLI Reporting Station
Overcast Overcast  
Wind Chill: 50°   Ceiling: 1500
Heat Index: 50°   Visibility: 7mi
Dew Point: 46°   Wind: 15mph
Humidity: 86%   Direction: 210°SSW
Pressure: 29.91"   Gusts: NA
Location:  41.2827°N, 90.3344°W
Report Text: KMLI 221652Z 21013KT 7SM BKN015 OVC040 10/08 A2991 RMK AO2 SLP130 T01000078
Loading
Personal Weather Stations






























Interactive Weather Map New forecast layout! Learn more

10-Day Weather Forecast

Advertisements
Track Severe Weather on mobile